N510HS KSAN-KLAX
Flight info
| Callsign | N510HS |
|---|---|
| Flight time | 0h 31m |
| Altitude | 10000 |
| Route | FALCC1 SLI |
| Aircraft | C510/L-SDFGRWY/LB1 |
Departure
| Time | 2026-04-26 02:34 |
|---|---|
| Airport | San Diego International Airport (KSAN) |
Arrival
| Time | 2026-04-26 03:06 |
|---|---|
| Airport | Los Angeles International Airport (KLAX) |
| Time | Latitude | Longitude | Altitude | Speed | Heading |
|---|---|---|---|---|---|
| 2026-04-26 02:10 | 32.73322 | -117.17771 | 19 ft | 0 kts | 353° |
| 2026-04-26 02:27 | 32.73323 | -117.17771 | 19 ft | 1 kts | 354° |
| 2026-04-26 02:28 | 32.73335 | -117.17798 | 19 ft | 10 kts | 283° |
| 2026-04-26 02:28 | 32.73364 | -117.17900 | 21 ft | 12 kts | 288° |
| 2026-04-26 02:28 | 32.73331 | -117.17960 | 21 ft | 12 kts | 201° |
| 2026-04-26 02:28 | 32.73235 | -117.17972 | 18 ft | 13 kts | 140° |
| 2026-04-26 02:29 | 32.73205 | -117.17872 | 18 ft | 13 kts | 105° |
| 2026-04-26 02:29 | 32.73182 | -117.17773 | 19 ft | 12 kts | 107° |
| 2026-04-26 02:29 | 32.73155 | -117.17669 | 19 ft | 15 kts | 105° |
| 2026-04-26 02:29 | 32.73114 | -117.17563 | 18 ft | 12 kts | 146° |
| 2026-04-26 02:30 | 32.73092 | -117.17548 | 18 ft | 0 kts | 152° |
| 2026-04-26 02:31 | 32.73076 | -117.17538 | 18 ft | 7 kts | 152° |
| 2026-04-26 02:31 | 32.73021 | -117.17543 | 19 ft | 8 kts | 242° |
| 2026-04-26 02:31 | 32.73018 | -117.17576 | 19 ft | 0 kts | 284° |
| 2026-04-26 02:33 | 32.73023 | -117.17600 | 18 ft | 14 kts | 285° |
| 2026-04-26 02:34 | 32.73110 | -117.17959 | 15 ft | 81 kts | 286° |
| 2026-04-26 02:34 | 32.73320 | -117.18791 | 215 ft | 118 kts | 289° |
| 2026-04-26 02:34 | 32.73607 | -117.19787 | 776 ft | 137 kts | 290° |
| 2026-04-26 02:34 | 32.74074 | -117.20821 | 1514 ft | 149 kts | 301° |
| 2026-04-26 02:35 | 32.74688 | -117.21861 | 2142 ft | 162 kts | 298° |
| 2026-04-26 02:35 | 32.75282 | -117.23040 | 2772 ft | 172 kts | 298° |
| 2026-04-26 02:35 | 32.75971 | -117.24323 | 2970 ft | 204 kts | 300° |
| 2026-04-26 02:35 | 32.77079 | -117.25562 | 2906 ft | 237 kts | 329° |
| 2026-04-26 02:36 | 32.78742 | -117.25938 | 2991 ft | 254 kts | 0° |
| 2026-04-26 02:36 | 32.80515 | -117.25575 | 3048 ft | 261 kts | 10° |
| 2026-04-26 02:36 | 32.82285 | -117.25105 | 3392 ft | 256 kts | 10° |
| 2026-04-26 02:36 | 32.83970 | -117.24645 | 4018 ft | 241 kts | 8° |
| 2026-04-26 02:37 | 32.85579 | -117.24309 | 4656 ft | 230 kts | 9° |
| 2026-04-26 02:37 | 32.87096 | -117.24131 | 5269 ft | 217 kts | 347° |
| 2026-04-26 02:37 | 32.88371 | -117.24937 | 5890 ft | 207 kts | 310° |
| 2026-04-26 02:37 | 32.88971 | -117.26441 | 6515 ft | 200 kts | 281° |
| 2026-04-26 02:38 | 32.89243 | -117.28051 | 7087 ft | 200 kts | 284° |
| 2026-04-26 02:38 | 32.89777 | -117.29608 | 7583 ft | 206 kts | 292° |
| 2026-04-26 02:38 | 32.90387 | -117.31154 | 8091 ft | 207 kts | 292° |
| 2026-04-26 02:38 | 32.90986 | -117.32724 | 8596 ft | 209 kts | 291° |
| 2026-04-26 02:39 | 32.91596 | -117.34305 | 9120 ft | 211 kts | 291° |
| 2026-04-26 02:39 | 32.92204 | -117.35891 | 9645 ft | 209 kts | 290° |
| 2026-04-26 02:39 | 32.92812 | -117.37471 | 9981 ft | 216 kts | 290° |
| 2026-04-26 02:39 | 32.93443 | -117.39132 | 9969 ft | 230 kts | 291° |
| 2026-04-26 02:40 | 32.94125 | -117.40900 | 9976 ft | 239 kts | 291° |
| 2026-04-26 02:40 | 32.94824 | -117.42725 | 9974 ft | 245 kts | 291° |
| 2026-04-26 02:40 | 32.95537 | -117.44581 | 9978 ft | 248 kts | 291° |
| 2026-04-26 02:40 | 32.96253 | -117.46454 | 9980 ft | 249 kts | 291° |
| 2026-04-26 02:41 | 32.96977 | -117.48342 | 9985 ft | 251 kts | 291° |
| 2026-04-26 02:41 | 32.97701 | -117.50238 | 9982 ft | 252 kts | 291° |
| 2026-04-26 02:41 | 32.98428 | -117.52139 | 9977 ft | 253 kts | 291° |
| 2026-04-26 02:41 | 32.99155 | -117.54041 | 9983 ft | 253 kts | 291° |
| 2026-04-26 02:42 | 32.99875 | -117.55926 | 9985 ft | 254 kts | 291° |
| 2026-04-26 02:42 | 33.00606 | -117.57839 | 9980 ft | 254 kts | 291° |
| 2026-04-26 02:42 | 33.01334 | -117.59752 | 9976 ft | 253 kts | 291° |
| 2026-04-26 02:42 | 33.02064 | -117.61666 | 9977 ft | 254 kts | 291° |
| 2026-04-26 02:43 | 33.03523 | -117.65495 | 9980 ft | 254 kts | 291° |
| 2026-04-26 02:43 | 33.04249 | -117.67407 | 9979 ft | 253 kts | 291° |
| 2026-04-26 02:43 | 33.04975 | -117.69310 | 9976 ft | 252 kts | 291° |
| 2026-04-26 02:44 | 33.05694 | -117.71205 | 9971 ft | 250 kts | 291° |
| 2026-04-26 02:44 | 33.06604 | -117.72976 | 9969 ft | 253 kts | 305° |
| 2026-04-26 02:44 | 33.07851 | -117.74465 | 9967 ft | 256 kts | 315° |
| 2026-04-26 02:44 | 33.09218 | -117.75820 | 9969 ft | 255 kts | 315° |
| 2026-04-26 02:45 | 33.10539 | -117.77186 | 9971 ft | 255 kts | 315° |
| 2026-04-26 02:45 | 33.11890 | -117.78561 | 9967 ft | 255 kts | 315° |
| 2026-04-26 02:45 | 33.13242 | -117.79932 | 9968 ft | 255 kts | 315° |
| 2026-04-26 02:45 | 33.14593 | -117.81307 | 9973 ft | 255 kts | 315° |
| 2026-04-26 02:46 | 33.15946 | -117.82684 | 9964 ft | 255 kts | 315° |
| 2026-04-26 02:46 | 33.17295 | -117.84059 | 9971 ft | 255 kts | 315° |
| 2026-04-26 02:46 | 33.18675 | -117.85395 | 9965 ft | 257 kts | 321° |
| 2026-04-26 02:46 | 33.20295 | -117.86339 | 9961 ft | 262 kts | 335° |
| 2026-04-26 02:47 | 33.22079 | -117.86862 | 9957 ft | 265 kts | 344° |
| 2026-04-26 02:47 | 33.23886 | -117.87297 | 9954 ft | 265 kts | 342° |
| 2026-04-26 02:47 | 33.25689 | -117.87768 | 9957 ft | 265 kts | 343° |
| 2026-04-26 02:47 | 33.27498 | -117.88214 | 9957 ft | 266 kts | 343° |
| 2026-04-26 02:48 | 33.29288 | -117.88655 | 9958 ft | 266 kts | 343° |
| 2026-04-26 02:48 | 33.31099 | -117.89105 | 9956 ft | 266 kts | 343° |
| 2026-04-26 02:48 | 33.32913 | -117.89558 | 9954 ft | 267 kts | 343° |
| 2026-04-26 02:48 | 33.34730 | -117.90012 | 9960 ft | 267 kts | 343° |
| 2026-04-26 02:49 | 33.36529 | -117.90457 | 9860 ft | 254 kts | 343° |
| 2026-04-26 02:49 | 33.38176 | -117.90860 | 9387 ft | 231 kts | 343° |
| 2026-04-26 02:49 | 33.39661 | -117.91362 | 8858 ft | 215 kts | 336° |
| 2026-04-26 02:49 | 33.41055 | -117.91893 | 8395 ft | 209 kts | 338° |
| 2026-04-26 02:50 | 33.42573 | -117.92454 | 7986 ft | 245 kts | 339° |
| 2026-04-26 02:50 | 33.44163 | -117.93020 | 7654 ft | 231 kts | 340° |
| 2026-04-26 02:50 | 33.45716 | -117.93578 | 7406 ft | 233 kts | 339° |
| 2026-04-26 02:50 | 33.47252 | -117.94133 | 7158 ft | 229 kts | 341° |
| 2026-04-26 02:51 | 33.48824 | -117.94159 | 6956 ft | 236 kts | 12° |
| 2026-04-26 02:51 | 33.50284 | -117.93242 | 6952 ft | 241 kts | 30° |
| 2026-04-26 02:51 | 33.51689 | -117.92128 | 6951 ft | 243 kts | 30° |
| 2026-04-26 02:51 | 33.53108 | -117.91008 | 6953 ft | 245 kts | 31° |
| 2026-04-26 02:52 | 33.54520 | -117.89872 | 6957 ft | 244 kts | 31° |
| 2026-04-26 02:52 | 33.55928 | -117.88739 | 6959 ft | 244 kts | 32° |
| 2026-04-26 02:52 | 33.57343 | -117.87596 | 6962 ft | 246 kts | 32° |
| 2026-04-26 02:52 | 33.58751 | -117.86462 | 6963 ft | 243 kts | 31° |
| 2026-04-26 02:53 | 33.60165 | -117.85331 | 6964 ft | 243 kts | 29° |
| 2026-04-26 02:53 | 33.61734 | -117.84744 | 6954 ft | 235 kts | 359° |
| 2026-04-26 02:53 | 33.63361 | -117.84849 | 6956 ft | 235 kts | 352° |
| 2026-04-26 02:53 | 33.63804 | -117.84892 | 6955 ft | 235 kts | 352° |
| 2026-04-26 02:54 | 33.65409 | -117.85040 | 6954 ft | 235 kts | 352° |
| 2026-04-26 02:54 | 33.67034 | -117.85210 | 6956 ft | 235 kts | 351° |
| 2026-04-26 02:54 | 33.68666 | -117.85380 | 6955 ft | 236 kts | 351° |
| 2026-04-26 02:54 | 33.70299 | -117.85552 | 6960 ft | 235 kts | 351° |
| 2026-04-26 02:55 | 33.71912 | -117.85813 | 6953 ft | 232 kts | 340° |
| 2026-04-26 02:55 | 33.73396 | -117.86548 | 6955 ft | 231 kts | 331° |
| 2026-04-26 02:55 | 33.74863 | -117.87360 | 6956 ft | 231 kts | 332° |
| 2026-04-26 02:55 | 33.76321 | -117.88164 | 6955 ft | 231 kts | 331° |
| 2026-04-26 02:56 | 33.77787 | -117.88979 | 6956 ft | 232 kts | 331° |
| 2026-04-26 02:56 | 33.79228 | -117.89782 | 6950 ft | 231 kts | 331° |
| 2026-04-26 02:56 | 33.80690 | -117.90596 | 6951 ft | 232 kts | 331° |
| 2026-04-26 02:56 | 33.82150 | -117.91411 | 6952 ft | 231 kts | 331° |
| 2026-04-26 02:57 | 33.83603 | -117.92218 | 6954 ft | 230 kts | 331° |
| 2026-04-26 02:57 | 33.85064 | -117.93032 | 6957 ft | 231 kts | 331° |
| 2026-04-26 02:57 | 33.86516 | -117.93844 | 6955 ft | 230 kts | 331° |
| 2026-04-26 02:57 | 33.87967 | -117.94665 | 7004 ft | 228 kts | 328° |
| 2026-04-26 02:58 | 33.89222 | -117.95820 | 6773 ft | 229 kts | 313° |
| 2026-04-26 02:58 | 33.90339 | -117.97150 | 6287 ft | 234 kts | 312° |
| 2026-04-26 02:58 | 33.91463 | -117.98521 | 5771 ft | 225 kts | 311° |
| 2026-04-26 02:58 | 33.92556 | -117.99861 | 5264 ft | 225 kts | 311° |
| 2026-04-26 02:59 | 33.93628 | -118.01178 | 5007 ft | 217 kts | 311° |
| 2026-04-26 02:59 | 33.94677 | -118.02469 | 5005 ft | 221 kts | 311° |
| 2026-04-26 02:59 | 33.95843 | -118.03919 | 5006 ft | 262 kts | 311° |
| 2026-04-26 02:59 | 33.97126 | -118.05535 | 5002 ft | 267 kts | 310° |
| 2026-04-26 03:00 | 33.98028 | -118.07416 | 4984 ft | 243 kts | 285° |
| 2026-04-26 03:00 | 33.98318 | -118.09210 | 4675 ft | 203 kts | 277° |
| 2026-04-26 03:00 | 33.98520 | -118.10812 | 4255 ft | 186 kts | 277° |
| 2026-04-26 03:00 | 33.98700 | -118.12308 | 3844 ft | 174 kts | 274° |
| 2026-04-26 03:01 | 33.98474 | -118.13677 | 3428 ft | 166 kts | 240° |
| 2026-04-26 03:01 | 33.97746 | -118.14728 | 3030 ft | 162 kts | 225° |
| 2026-04-26 03:01 | 33.96882 | -118.15466 | 2990 ft | 141 kts | 213° |
| 2026-04-26 03:01 | 33.96286 | -118.16436 | 2918 ft | 165 kts | 248° |
| 2026-04-26 03:02 | 33.95839 | -118.17866 | 2995 ft | 196 kts | 256° |
| 2026-04-26 03:02 | 33.95656 | -118.19491 | 3000 ft | 194 kts | 263° |
| 2026-04-26 03:02 | 33.95478 | -118.21082 | 3006 ft | 189 kts | 262° |
| 2026-04-26 03:02 | 33.95331 | -118.22634 | 3009 ft | 184 kts | 264° |
| 2026-04-26 03:03 | 33.95177 | -118.24152 | 3010 ft | 180 kts | 262° |
| 2026-04-26 03:03 | 33.94997 | -118.25685 | 2687 ft | 191 kts | 262° |
| 2026-04-26 03:03 | 33.94816 | -118.27301 | 2113 ft | 196 kts | 262° |
| 2026-04-26 03:03 | 33.94647 | -118.28873 | 2012 ft | 178 kts | 263° |
| 2026-04-26 03:04 | 33.94517 | -118.30315 | 1681 ft | 171 kts | 264° |
| 2026-04-26 03:04 | 33.94382 | -118.31584 | 1244 ft | 140 kts | 262° |
| 2026-04-26 03:04 | 33.94285 | -118.32710 | 1029 ft | 129 kts | 261° |
| 2026-04-26 03:04 | 33.94199 | -118.33720 | 895 ft | 123 kts | 263° |
| 2026-04-26 03:05 | 33.94095 | -118.34853 | 675 ft | 145 kts | 261° |
| 2026-04-26 03:05 | 33.93968 | -118.35996 | 488 ft | 125 kts | 261° |
| 2026-04-26 03:05 | 33.93861 | -118.36992 | 340 ft | 121 kts | 262° |
| 2026-04-26 03:05 | 33.93764 | -118.38003 | 201 ft | 112 kts | 261° |
| 2026-04-26 03:06 | 33.93680 | -118.38845 | 123 ft | 90 kts | 260° |
| 2026-04-26 03:06 | 33.93619 | -118.39371 | 122 ft | 41 kts | 264° |
| 2026-04-26 03:06 | 33.93601 | -118.39638 | 122 ft | 30 kts | 261° |
| 2026-04-26 03:06 | 33.93570 | -118.39885 | 122 ft | 33 kts | 259° |
| 2026-04-26 03:07 | 33.93545 | -118.40038 | 122 ft | 20 kts | 253° |
| 2026-04-26 03:07 | 33.93500 | -118.40176 | 122 ft | 7 kts | 238° |
| 2026-04-26 03:07 | 33.93457 | -118.40203 | 120 ft | 7 kts | 175° |
| 2026-04-26 03:07 | 33.93441 | -118.40196 | 122 ft | 0 kts | 146° |
| 2026-04-26 03:08 | 33.93423 | -118.40166 | 120 ft | 9 kts | 98° |
| 2026-04-26 03:08 | 33.93431 | -118.40053 | 122 ft | 16 kts | 82° |
| 2026-04-26 03:08 | 33.93444 | -118.39908 | 122 ft | 18 kts | 83° |
| 2026-04-26 03:09 | 33.93442 | -118.39823 | 120 ft | 7 kts | 153° |
| 2026-04-26 03:09 | 33.93376 | -118.39821 | 120 ft | 11 kts | 199° |
| 2026-04-26 03:09 | 33.93297 | -118.39828 | 122 ft | 12 kts | 185° |
| 2026-04-26 03:09 | 33.93275 | -118.39868 | 122 ft | 4 kts | 268° |
| 2026-04-26 03:10 | 33.93275 | -118.39873 | 122 ft | 0 kts | 270° |